sensor_id;sensor_type;location;lat;lon;timestamp;P1;durP1;ratioP1;P2;durP2;ratioP2
15629;SDS011;7914;50.842;0.166;2023-04-03T00:01:37;6.15;;;1.73;;
15629;SDS011;7914;50.842;0.166;2023-04-03T00:04:04;6.47;;;1.45;;
15629;SDS011;7914;50.842;0.166;2023-04-03T00:06:30;5.78;;;1.80;;
15629;SDS011;7914;50.842;0.166;2023-04-03T00:08:56;4.55;;;1.70;;
15629;SDS011;7914;50.842;0.166;2023-04-03T00:11:22;5.47;;;1.52;;
15629;SDS011;7914;50.842;0.166;2023-04-03T00:13:48;7.68;;;1.98;;
15629;SDS011;7914;50.842;0.166;2023-04-03T00:16:15;4.93;;;1.55;;
15629;SDS011;7914;50.842;0.166;2023-04-03T00:18:41;7.95;;;1.23;;
15629;SDS011;7914;50.842;0.166;2023-04-03T00:21:07;7.85;;;1.65;;
15629;SDS011;7914;50.842;0.166;2023-04-03T00:23:34;5.80;;;1.48;;
15629;SDS011;7914;50.842;0.166;2023-04-03T00:26:00;6.07;;;1.95;;
15629;SDS011;7914;50.842;0.166;2023-04-03T00:28:26;6.75;;;1.85;;
15629;SDS011;7914;50.842;0.166;2023-04-03T00:30:52;6.85;;;1.48;;
15629;SDS011;7914;50.842;0.166;2023-04-03T00:33:17;6.00;;;1.38;;
15629;SDS011;7914;50.842;0.166;2023-04-03T00:35:46;6.13;;;1.83;;
15629;SDS011;7914;50.842;0.166;2023-04-03T00:38:13;6.55;;;1.58;;
15629;SDS011;7914;50.842;0.166;2023-04-03T00:40:41;5.72;;;1.52;;
15629;SDS011;7914;50.842;0.166;2023-04-03T00:43:13;6.85;;;1.27;;
15629;SDS011;7914;50.842;0.166;2023-04-03T00:45:43;13.10;;;2.28;;
15629;SDS011;7914;50.842;0.166;2023-04-03T00:48:14;8.65;;;1.40;;
15629;SDS011;7914;50.842;0.166;2023-04-03T00:51:00;7.47;;;1.63;;
15629;SDS011;7914;50.842;0.166;2023-04-03T00:53:29;6.85;;;1.52;;
15629;SDS011;7914;50.842;0.166;2023-04-03T00:55:58;3.67;;;1.20;;
15629;SDS011;7914;50.842;0.166;2023-04-03T00:58:31;6.35;;;1.67;;
15629;SDS011;7914;50.842;0.166;2023-04-03T01:01:03;4.90;;;1.70;;
15629;SDS011;7914;50.842;0.166;2023-04-03T01:03:31;5.80;;;1.90;;
15629;SDS011;7914;50.842;0.166;2023-04-03T01:05:57;5.85;;;2.17;;
15629;SDS011;7914;50.842;0.166;2023-04-03T01:08:23;6.32;;;2.03;;
15629;SDS011;7914;50.842;0.166;2023-04-03T01:10:49;5.95;;;1.80;;
15629;SDS011;7914;50.842;0.166;2023-04-03T01:13:23;8.02;;;2.10;;
15629;SDS011;7914;50.842;0.166;2023-04-03T01:15:55;5.75;;;1.90;;
15629;SDS011;7914;50.842;0.166;2023-04-03T01:18:22;7.15;;;1.90;;
15629;SDS011;7914;50.842;0.166;2023-04-03T01:26:36;6.07;;;1.50;;
15629;SDS011;7914;50.842;0.166;2023-04-03T01:29:03;6.57;;;1.83;;
15629;SDS011;7914;50.842;0.166;2023-04-03T01:34:01;3.67;;;1.42;;
15629;SDS011;7914;50.842;0.166;2023-04-03T01:36:29;7.43;;;1.95;;
15629;SDS011;7914;50.842;0.166;2023-04-03T01:38:56;8.23;;;1.80;;
15629;SDS011;7914;50.842;0.166;2023-04-03T01:41:24;7.00;;;1.50;;
15629;SDS011;7914;50.842;0.166;2023-04-03T01:43:50;7.75;;;2.00;;
15629;SDS011;7914;50.842;0.166;2023-04-03T01:46:17;5.57;;;2.08;;
15629;SDS011;7914;50.842;0.166;2023-04-03T01:48:44;6.70;;;2.28;;
15629;SDS011;7914;50.842;0.166;2023-04-03T01:51:10;6.35;;;1.63;;
15629;SDS011;7914;50.842;0.166;2023-04-03T01:53:36;7.45;;;2.03;;
15629;SDS011;7914;50.842;0.166;2023-04-03T01:56:03;8.05;;;1.65;;
15629;SDS011;7914;50.842;0.166;2023-04-03T01:58:30;5.22;;;1.77;;
15629;SDS011;7914;50.842;0.166;2023-04-03T02:00:55;5.80;;;1.75;;
15629;SDS011;7914;50.842;0.166;2023-04-03T02:03:21;8.32;;;1.77;;
15629;SDS011;7914;50.842;0.166;2023-04-03T02:05:47;8.30;;;1.80;;
15629;SDS011;7914;50.842;0.166;2023-04-03T02:08:13;10.68;;;2.13;;
15629;SDS011;7914;50.842;0.166;2023-04-03T02:10:39;12.57;;;1.70;;
15629;SDS011;7914;50.842;0.166;2023-04-03T02:13:05;7.07;;;1.77;;
15629;SDS011;7914;50.842;0.166;2023-04-03T02:15:31;4.60;;;2.17;;
15629;SDS011;7914;50.842;0.166;2023-04-03T02:17:56;9.60;;;2.75;;
15629;SDS011;7914;50.842;0.166;2023-04-03T02:20:22;11.57;;;2.17;;
15629;SDS011;7914;50.842;0.166;2023-04-03T02:22:48;6.90;;;1.85;;
15629;SDS011;7914;50.842;0.166;2023-04-03T02:25:13;8.15;;;2.40;;
15629;SDS011;7914;50.842;0.166;2023-04-03T02:27:40;7.72;;;1.77;;
15629;SDS011;7914;50.842;0.166;2023-04-03T02:30:07;7.60;;;1.58;;
15629;SDS011;7914;50.842;0.166;2023-04-03T02:32:35;7.38;;;1.60;;
15629;SDS011;7914;50.842;0.166;2023-04-03T02:35:01;5.90;;;1.45;;
15629;SDS011;7914;50.842;0.166;2023-04-03T02:37:27;7.47;;;1.70;;
15629;SDS011;7914;50.842;0.166;2023-04-03T02:39:53;5.80;;;1.50;;
15629;SDS011;7914;50.842;0.166;2023-04-03T02:42:18;6.53;;;1.63;;
15629;SDS011;7914;50.842;0.166;2023-04-03T02:44:44;8.00;;;1.58;;
15629;SDS011;7914;50.842;0.166;2023-04-03T02:47:10;4.50;;;1.38;;
15629;SDS011;7914;50.842;0.166;2023-04-03T02:49:35;8.00;;;1.80;;
15629;SDS011;7914;50.842;0.166;2023-04-03T02:52:01;8.05;;;2.00;;
15629;SDS011;7914;50.842;0.166;2023-04-03T02:54:27;5.15;;;1.67;;
15629;SDS011;7914;50.842;0.166;2023-04-03T02:56:55;5.03;;;1.85;;
15629;SDS011;7914;50.842;0.166;2023-04-03T02:59:21;7.88;;;1.67;;
15629;SDS011;7914;50.842;0.166;2023-04-03T03:01:47;7.38;;;1.60;;
15629;SDS011;7914;50.842;0.166;2023-04-03T03:04:12;5.75;;;1.88;;
15629;SDS011;7914;50.842;0.166;2023-04-03T03:06:38;5.80;;;1.48;;
15629;SDS011;7914;50.842;0.166;2023-04-03T03:09:05;7.20;;;1.83;;
15629;SDS011;7914;50.842;0.166;2023-04-03T03:11:31;6.13;;;1.70;;
15629;SDS011;7914;50.842;0.166;2023-04-03T03:13:57;8.35;;;1.88;;
15629;SDS011;7914;50.842;0.166;2023-04-03T03:16:22;5.88;;;1.92;;
15629;SDS011;7914;50.842;0.166;2023-04-03T03:18:48;5.10;;;1.52;;
15629;SDS011;7914;50.842;0.166;2023-04-03T03:21:14;8.13;;;2.00;;
15629;SDS011;7914;50.842;0.166;2023-04-03T03:23:40;5.55;;;1.85;;
15629;SDS011;7914;50.842;0.166;2023-04-03T03:26:06;4.10;;;1.40;;
15629;SDS011;7914;50.842;0.166;2023-04-03T03:28:34;5.38;;;1.40;;
15629;SDS011;7914;50.842;0.166;2023-04-03T03:31:02;4.95;;;1.52;;
15629;SDS011;7914;50.842;0.166;2023-04-03T03:33:28;5.40;;;1.70;;
15629;SDS011;7914;50.842;0.166;2023-04-03T03:35:54;8.98;;;2.47;;
15629;SDS011;7914;50.842;0.166;2023-04-03T03:38:20;7.40;;;2.15;;
15629;SDS011;7914;50.842;0.166;2023-04-03T03:40:47;8.68;;;1.50;;
15629;SDS011;7914;50.842;0.166;2023-04-03T03:43:13;7.03;;;2.03;;
15629;SDS011;7914;50.842;0.166;2023-04-03T03:45:40;8.90;;;1.75;;
15629;SDS011;7914;50.842;0.166;2023-04-03T03:48:06;5.25;;;1.30;;
15629;SDS011;7914;50.842;0.166;2023-04-03T03:50:32;5.22;;;2.08;;
15629;SDS011;7914;50.842;0.166;2023-04-03T03:52:58;6.72;;;1.90;;
15629;SDS011;7914;50.842;0.166;2023-04-03T03:55:23;6.85;;;1.80;;
15629;SDS011;7914;50.842;0.166;2023-04-03T03:57:49;4.72;;;1.45;;
15629;SDS011;7914;50.842;0.166;2023-04-03T04:00:15;6.60;;;1.70;;
15629;SDS011;7914;50.842;0.166;2023-04-03T04:02:41;7.35;;;2.00;;
15629;SDS011;7914;50.842;0.166;2023-04-03T04:05:07;6.65;;;2.33;;
15629;SDS011;7914;50.842;0.166;2023-04-03T04:07:33;6.57;;;1.98;;
15629;SDS011;7914;50.842;0.166;2023-04-03T04:09:59;4.65;;;2.15;;
15629;SDS011;7914;50.842;0.166;2023-04-03T04:12:25;13.13;;;2.10;;
15629;SDS011;7914;50.842;0.166;2023-04-03T04:14:51;5.65;;;1.77;;
15629;SDS011;7914;50.842;0.166;2023-04-03T04:17:17;4.60;;;1.52;;
15629;SDS011;7914;50.842;0.166;2023-04-03T04:19:42;6.28;;;1.58;;
15629;SDS011;7914;50.842;0.166;2023-04-03T04:22:09;10.80;;;2.30;;
15629;SDS011;7914;50.842;0.166;2023-04-03T04:24:35;7.55;;;1.92;;
15629;SDS011;7914;50.842;0.166;2023-04-03T04:27:01;11.02;;;1.98;;
15629;SDS011;7914;50.842;0.166;2023-04-03T04:29:26;4.85;;;1.67;;
15629;SDS011;7914;50.842;0.166;2023-04-03T04:31:52;5.88;;;1.92;;
15629;SDS011;7914;50.842;0.166;2023-04-03T04:34:18;8.80;;;2.00;;
15629;SDS011;7914;50.842;0.166;2023-04-03T04:36:44;9.45;;;2.50;;
15629;SDS011;7914;50.842;0.166;2023-04-03T04:39:10;5.22;;;2.13;;
15629;SDS011;7914;50.842;0.166;2023-04-03T04:41:36;9.35;;;1.95;;
15629;SDS011;7914;50.842;0.166;2023-04-03T04:44:02;5.75;;;2.00;;
15629;SDS011;7914;50.842;0.166;2023-04-03T04:46:28;7.75;;;1.90;;
15629;SDS011;7914;50.842;0.166;2023-04-03T04:48:54;8.00;;;2.22;;
15629;SDS011;7914;50.842;0.166;2023-04-03T04:51:20;8.32;;;2.17;;
15629;SDS011;7914;50.842;0.166;2023-04-03T04:53:46;4.93;;;1.92;;
15629;SDS011;7914;50.842;0.166;2023-04-03T04:56:12;5.80;;;2.10;;
15629;SDS011;7914;50.842;0.166;2023-04-03T04:58:37;9.02;;;2.13;;
15629;SDS011;7914;50.842;0.166;2023-04-03T05:01:07;6.97;;;2.05;;
15629;SDS011;7914;50.842;0.166;2023-04-03T05:03:35;10.57;;;2.28;;
15629;SDS011;7914;50.842;0.166;2023-04-03T05:06:01;8.07;;;1.80;;
15629;SDS011;7914;50.842;0.166;2023-04-03T05:08:27;4.65;;;2.03;;
15629;SDS011;7914;50.842;0.166;2023-04-03T05:10:53;7.68;;;2.10;;
15629;SDS011;7914;50.842;0.166;2023-04-03T05:13:20;11.65;;;2.42;;
15629;SDS011;7914;50.842;0.166;2023-04-03T05:15:46;13.52;;;3.05;;
15629;SDS011;7914;50.842;0.166;2023-04-03T05:18:12;9.18;;;2.13;;
15629;SDS011;7914;50.842;0.166;2023-04-03T05:20:38;8.80;;;2.05;;
15629;SDS011;7914;50.842;0.166;2023-04-03T05:23:04;5.55;;;2.40;;
15629;SDS011;7914;50.842;0.166;2023-04-03T05:25:30;12.35;;;3.03;;
15629;SDS011;7914;50.842;0.166;2023-04-03T05:27:56;5.10;;;2.25;;
15629;SDS011;7914;50.842;0.166;2023-04-03T05:30:22;9.38;;;2.28;;
15629;SDS011;7914;50.842;0.166;2023-04-03T05:32:47;7.88;;;2.28;;
15629;SDS011;7914;50.842;0.166;2023-04-03T05:35:13;7.18;;;2.78;;
15629;SDS011;7914;50.842;0.166;2023-04-03T05:37:39;7.28;;;2.33;;
15629;SDS011;7914;50.842;0.166;2023-04-03T05:40:06;8.68;;;2.42;;
15629;SDS011;7914;50.842;0.166;2023-04-03T05:42:32;7.72;;;2.60;;
15629;SDS011;7914;50.842;0.166;2023-04-03T05:44:58;4.93;;;2.03;;
15629;SDS011;7914;50.842;0.166;2023-04-03T05:47:24;8.25;;;2.85;;
15629;SDS011;7914;50.842;0.166;2023-04-03T05:49:50;14.60;;;2.20;;
15629;SDS011;7914;50.842;0.166;2023-04-03T05:52:33;6.00;;;2.30;;
15629;SDS011;7914;50.842;0.166;2023-04-03T05:55:05;4.65;;;1.85;;
15629;SDS011;7914;50.842;0.166;2023-04-03T05:57:31;6.30;;;2.58;;
15629;SDS011;7914;50.842;0.166;2023-04-03T05:59:57;8.57;;;2.40;;
15629;SDS011;7914;50.842;0.166;2023-04-03T06:02:23;8.00;;;2.65;;
15629;SDS011;7914;50.842;0.166;2023-04-03T06:04:50;8.25;;;2.30;;
15629;SDS011;7914;50.842;0.166;2023-04-03T06:07:21;9.13;;;2.60;;
15629;SDS011;7914;50.842;0.166;2023-04-03T06:09:48;7.63;;;2.47;;
15629;SDS011;7914;50.842;0.166;2023-04-03T06:12:14;7.57;;;2.92;;
15629;SDS011;7914;50.842;0.166;2023-04-03T06:14:41;7.70;;;2.58;;
15629;SDS011;7914;50.842;0.166;2023-04-03T06:17:08;7.18;;;2.30;;
15629;SDS011;7914;50.842;0.166;2023-04-03T06:19:34;10.18;;;2.88;;
15629;SDS011;7914;50.842;0.166;2023-04-03T06:22:01;6.63;;;2.38;;
15629;SDS011;7914;50.842;0.166;2023-04-03T06:24:28;7.35;;;2.53;;
15629;SDS011;7914;50.842;0.166;2023-04-03T06:26:57;11.77;;;2.92;;
15629;SDS011;7914;50.842;0.166;2023-04-03T06:29:23;8.48;;;2.10;;
15629;SDS011;7914;50.842;0.166;2023-04-03T06:31:50;13.80;;;2.55;;
15629;SDS011;7914;50.842;0.166;2023-04-03T06:34:16;8.90;;;2.55;;
15629;SDS011;7914;50.842;0.166;2023-04-03T06:36:43;8.93;;;2.47;;
15629;SDS011;7914;50.842;0.166;2023-04-03T06:39:14;6.65;;;2.20;;
15629;SDS011;7914;50.842;0.166;2023-04-03T06:41:41;7.43;;;2.40;;
15629;SDS011;7914;50.842;0.166;2023-04-03T06:44:08;8.77;;;2.50;;
15629;SDS011;7914;50.842;0.166;2023-04-03T06:46:36;9.55;;;2.30;;
15629;SDS011;7914;50.842;0.166;2023-04-03T06:49:02;10.75;;;3.15;;
15629;SDS011;7914;50.842;0.166;2023-04-03T06:51:30;12.50;;;2.45;;
15629;SDS011;7914;50.842;0.166;2023-04-03T06:53:59;6.00;;;2.20;;
15629;SDS011;7914;50.842;0.166;2023-04-03T06:56:26;6.95;;;2.40;;
15629;SDS011;7914;50.842;0.166;2023-04-03T06:58:53;9.52;;;2.05;;
15629;SDS011;7914;50.842;0.166;2023-04-03T07:01:22;11.65;;;2.72;;
15629;SDS011;7914;50.842;0.166;2023-04-03T07:03:48;10.43;;;2.20;;
15629;SDS011;7914;50.842;0.166;2023-04-03T07:06:15;6.05;;;2.50;;
15629;SDS011;7914;50.842;0.166;2023-04-03T07:08:42;9.98;;;2.15;;
15629;SDS011;7914;50.842;0.166;2023-04-03T07:11:09;5.85;;;2.20;;
15629;SDS011;7914;50.842;0.166;2023-04-03T07:13:35;6.97;;;2.47;;
15629;SDS011;7914;50.842;0.166;2023-04-03T07:16:01;6.00;;;2.63;;
15629;SDS011;7914;50.842;0.166;2023-04-03T07:18:29;8.50;;;3.20;;
15629;SDS011;7914;50.842;0.166;2023-04-03T07:20:54;6.60;;;2.40;;
15629;SDS011;7914;50.842;0.166;2023-04-03T07:23:21;7.93;;;2.08;;
15629;SDS011;7914;50.842;0.166;2023-04-03T07:25:49;8.98;;;2.47;;
15629;SDS011;7914;50.842;0.166;2023-04-03T07:28:16;8.57;;;2.65;;
15629;SDS011;7914;50.842;0.166;2023-04-03T07:30:44;7.50;;;1.90;;
15629;SDS011;7914;50.842;0.166;2023-04-03T07:33:15;7.35;;;2.90;;
15629;SDS011;7914;50.842;0.166;2023-04-03T07:35:42;7.63;;;2.20;;
15629;SDS011;7914;50.842;0.166;2023-04-03T07:38:09;6.43;;;2.13;;
15629;SDS011;7914;50.842;0.166;2023-04-03T07:40:35;6.65;;;2.40;;
15629;SDS011;7914;50.842;0.166;2023-04-03T07:43:01;9.18;;;3.10;;
15629;SDS011;7914;50.842;0.166;2023-04-03T07:45:27;12.10;;;2.72;;
15629;SDS011;7914;50.842;0.166;2023-04-03T07:47:54;8.48;;;3.38;;
15629;SDS011;7914;50.842;0.166;2023-04-03T07:50:21;9.85;;;3.08;;
15629;SDS011;7914;50.842;0.166;2023-04-03T07:52:47;8.63;;;2.58;;
15629;SDS011;7914;50.842;0.166;2023-04-03T07:55:14;6.90;;;2.42;;
15629;SDS011;7914;50.842;0.166;2023-04-03T07:57:40;6.97;;;2.60;;
15629;SDS011;7914;50.842;0.166;2023-04-03T08:00:07;11.43;;;2.90;;
15629;SDS011;7914;50.842;0.166;2023-04-03T08:02:34;10.23;;;2.60;;
15629;SDS011;7914;50.842;0.166;2023-04-03T08:04:59;9.05;;;2.20;;
15629;SDS011;7914;50.842;0.166;2023-04-03T08:07:25;8.32;;;2.60;;
15629;SDS011;7914;50.842;0.166;2023-04-03T08:09:51;7.85;;;2.50;;
15629;SDS011;7914;50.842;0.166;2023-04-03T08:12:17;9.38;;;2.95;;
15629;SDS011;7914;50.842;0.166;2023-04-03T08:14:43;8.52;;;2.67;;
15629;SDS011;7914;50.842;0.166;2023-04-03T08:17:09;10.20;;;2.90;;
15629;SDS011;7914;50.842;0.166;2023-04-03T08:19:37;9.05;;;3.35;;
15629;SDS011;7914;50.842;0.166;2023-04-03T08:22:03;10.65;;;3.60;;
15629;SDS011;7914;50.842;0.166;2023-04-03T08:24:30;8.10;;;2.88;;
15629;SDS011;7914;50.842;0.166;2023-04-03T08:26:57;7.10;;;3.17;;
15629;SDS011;7914;50.842;0.166;2023-04-03T08:29:23;8.85;;;2.60;;
15629;SDS011;7914;50.842;0.166;2023-04-03T08:31:49;8.95;;;3.10;;
15629;SDS011;7914;50.842;0.166;2023-04-03T08:34:15;5.57;;;2.30;;
15629;SDS011;7914;50.842;0.166;2023-04-03T08:36:42;8.63;;;2.92;;
15629;SDS011;7914;50.842;0.166;2023-04-03T08:39:07;7.38;;;2.50;;
15629;SDS011;7914;50.842;0.166;2023-04-03T08:41:41;7.07;;;2.85;;
15629;SDS011;7914;50.842;0.166;2023-04-03T08:46:43;9.07;;;2.95;;
15629;SDS011;7914;50.842;0.166;2023-04-03T08:49:46;7.63;;;2.50;;
15629;SDS011;7914;50.842;0.166;2023-04-03T08:57:37;11.60;;;3.17;;
15629;SDS011;7914;50.842;0.166;2023-04-03T09:00:25;9.38;;;3.90;;
15629;SDS011;7914;50.842;0.166;2023-04-03T09:02:55;10.27;;;4.05;;
15629;SDS011;7914;50.842;0.166;2023-04-03T09:08:04;6.63;;;3.38;;
15629;SDS011;7914;50.842;0.166;2023-04-03T09:10:49;10.93;;;5.65;;
15629;SDS011;7914;50.842;0.166;2023-04-03T09:13:59;9.30;;;4.22;;
15629;SDS011;7914;50.842;0.166;2023-04-03T09:21:36;13.15;;;5.95;;
15629;SDS011;7914;50.842;0.166;2023-04-03T09:24:05;13.82;;;6.20;;
15629;SDS011;7914;50.842;0.166;2023-04-03T09:26:34;10.73;;;4.95;;
15629;SDS011;7914;50.842;0.166;2023-04-03T09:29:08;11.18;;;5.78;;
15629;SDS011;7914;50.842;0.166;2023-04-03T09:31:40;11.50;;;5.30;;
15629;SDS011;7914;50.842;0.166;2023-04-03T09:37:12;12.55;;;4.68;;
15629;SDS011;7914;50.842;0.166;2023-04-03T09:40:03;10.25;;;4.38;;
15629;SDS011;7914;50.842;0.166;2023-04-03T09:42:30;11.48;;;5.80;;
15629;SDS011;7914;50.842;0.166;2023-04-03T09:45:04;11.32;;;5.97;;
15629;SDS011;7914;50.842;0.166;2023-04-03T09:52:49;9.70;;;4.85;;
15629;SDS011;7914;50.842;0.166;2023-04-03T09:55:23;10.48;;;4.40;;
15629;SDS011;7914;50.842;0.166;2023-04-03T09:57:55;10.55;;;4.63;;
15629;SDS011;7914;50.842;0.166;2023-04-03T10:00:25;6.38;;;3.75;;
15629;SDS011;7914;50.842;0.166;2023-04-03T10:03:02;9.02;;;4.70;;
15629;SDS011;7914;50.842;0.166;2023-04-03T10:10:40;4.65;;;1.88;;
15629;SDS011;7914;50.842;0.166;2023-04-03T10:13:25;8.25;;;3.67;;
15629;SDS011;7914;50.842;0.166;2023-04-03T10:15:55;5.85;;;2.80;;
15629;SDS011;7914;50.842;0.166;2023-04-03T10:18:40;8.43;;;2.63;;
15629;SDS011;7914;50.842;0.166;2023-04-03T10:24:49;6.75;;;2.83;;
15629;SDS011;7914;50.842;0.166;2023-04-03T10:29:34;9.57;;;2.35;;
15629;SDS011;7914;50.842;0.166;2023-04-03T10:34:44;5.72;;;2.53;;
15629;SDS011;7914;50.842;0.166;2023-04-03T10:39:59;5.78;;;2.55;;
15629;SDS011;7914;50.842;0.166;2023-04-03T11:02:57;4.22;;;1.98;;
15629;SDS011;7914;50.842;0.166;2023-04-03T11:05:04;7.07;;;2.08;;
15629;SDS011;7914;50.842;0.166;2023-04-03T11:07:42;4.80;;;1.90;;
15629;SDS011;7914;50.842;0.166;2023-04-03T11:10:35;6.10;;;1.70;;
15629;SDS011;7914;50.842;0.166;2023-04-03T11:13:02;4.03;;;1.65;;
15629;SDS011;7914;50.842;0.166;2023-04-03T11:15:38;5.60;;;1.45;;
15629;SDS011;7914;50.842;0.166;2023-04-03T11:18:06;5.85;;;1.60;;
15629;SDS011;7914;50.842;0.166;2023-04-03T11:20:36;7.45;;;1.85;;
15629;SDS011;7914;50.842;0.166;2023-04-03T11:25:50;4.82;;;2.00;;
15629;SDS011;7914;50.842;0.166;2023-04-03T11:28:18;7.30;;;2.17;;
15629;SDS011;7914;50.842;0.166;2023-04-03T11:31:02;6.57;;;1.77;;
15629;SDS011;7914;50.842;0.166;2023-04-03T11:36:39;5.00;;;1.92;;
15629;SDS011;7914;50.842;0.166;2023-04-03T11:41:51;3.03;;;1.58;;
15629;SDS011;7914;50.842;0.166;2023-04-03T11:44:32;6.80;;;2.13;;
15629;SDS011;7914;50.842;0.166;2023-04-03T11:47:02;4.35;;;1.65;;
15629;SDS011;7914;50.842;0.166;2023-04-03T12:05:55;4.50;;;1.83;;
15629;SDS011;7914;50.842;0.166;2023-04-03T12:16:26;8.00;;;2.00;;
15629;SDS011;7914;50.842;0.166;2023-04-03T12:34:44;6.07;;;2.15;;
15629;SDS011;7914;50.842;0.166;2023-04-03T12:45:21;6.35;;;2.17;;
15629;SDS011;7914;50.842;0.166;2023-04-03T12:47:49;1.67;;;0.95;;
15629;SDS011;7914;50.842;0.166;2023-04-03T12:50:20;5.88;;;1.65;;
15629;SDS011;7914;50.842;0.166;2023-04-03T12:53:05;6.38;;;1.55;;
15629;SDS011;7914;50.842;0.166;2023-04-03T12:55:36;4.47;;;1.52;;
15629;SDS011;7914;50.842;0.166;2023-04-03T13:01:04;5.82;;;1.60;;
15629;SDS011;7914;50.842;0.166;2023-04-03T13:03:40;5.32;;;1.80;;
15629;SDS011;7914;50.842;0.166;2023-04-03T13:06:10;2.20;;;0.98;;
15629;SDS011;7914;50.842;0.166;2023-04-03T13:08:54;3.55;;;1.63;;
15629;SDS011;7914;50.842;0.166;2023-04-03T13:11:25;4.28;;;1.67;;
15629;SDS011;7914;50.842;0.166;2023-04-03T13:13:56;4.85;;;1.58;;
15629;SDS011;7914;50.842;0.166;2023-04-03T13:16:24;4.72;;;1.40;;
15629;SDS011;7914;50.842;0.166;2023-04-03T13:18:52;3.13;;;1.23;;
15629;SDS011;7914;50.842;0.166;2023-04-03T13:21:20;5.03;;;2.00;;
15629;SDS011;7914;50.842;0.166;2023-04-03T13:23:50;7.93;;;2.03;;
15629;SDS011;7914;50.842;0.166;2023-04-03T13:26:20;6.88;;;1.80;;
15629;SDS011;7914;50.842;0.166;2023-04-03T13:28:47;5.00;;;1.55;;
15629;SDS011;7914;50.842;0.166;2023-04-03T13:31:27;7.72;;;1.90;;
15629;SDS011;7914;50.842;0.166;2023-04-03T13:36:43;5.95;;;1.67;;
15629;SDS011;7914;50.842;0.166;2023-04-03T13:41:46;3.40;;;1.60;;
15629;SDS011;7914;50.842;0.166;2023-04-03T13:46:52;4.55;;;1.50;;
15629;SDS011;7914;50.842;0.166;2023-04-03T13:49:44;5.78;;;1.55;;
15629;SDS011;7914;50.842;0.166;2023-04-03T13:52:24;6.45;;;2.15;;
15629;SDS011;7914;50.842;0.166;2023-04-03T13:55:23;5.45;;;1.60;;
15629;SDS011;7914;50.842;0.166;2023-04-03T14:00:38;4.50;;;1.48;;
15629;SDS011;7914;50.842;0.166;2023-04-03T14:03:16;4.72;;;1.88;;
15629;SDS011;7914;50.842;0.166;2023-04-03T14:05:53;5.85;;;1.80;;
15629;SDS011;7914;50.842;0.166;2023-04-03T14:08:19;6.00;;;1.65;;
15629;SDS011;7914;50.842;0.166;2023-04-03T14:10:46;3.58;;;1.88;;
15629;SDS011;7914;50.842;0.166;2023-04-03T14:13:13;7.60;;;1.85;;
15629;SDS011;7914;50.842;0.166;2023-04-03T14:15:41;3.90;;;1.83;;
15629;SDS011;7914;50.842;0.166;2023-04-03T14:18:15;4.35;;;1.80;;
15629;SDS011;7914;50.842;0.166;2023-04-03T14:20:43;9.25;;;1.83;;
15629;SDS011;7914;50.842;0.166;2023-04-03T14:23:09;4.70;;;1.80;;
15629;SDS011;7914;50.842;0.166;2023-04-03T14:25:36;2.15;;;0.95;;
15629;SDS011;7914;50.842;0.166;2023-04-03T14:28:12;4.55;;;1.55;;
15629;SDS011;7914;50.842;0.166;2023-04-03T14:30:46;4.95;;;1.83;;
15629;SDS011;7914;50.842;0.166;2023-04-03T14:33:14;5.50;;;1.88;;
15629;SDS011;7914;50.842;0.166;2023-04-03T14:35:42;6.63;;;1.95;;
15629;SDS011;7914;50.842;0.166;2023-04-03T14:41:03;4.45;;;1.50;;
15629;SDS011;7914;50.842;0.166;2023-04-03T14:43:29;4.72;;;1.77;;
15629;SDS011;7914;50.842;0.166;2023-04-03T14:45:55;6.28;;;2.13;;
15629;SDS011;7914;50.842;0.166;2023-04-03T14:48:23;5.38;;;1.80;;
15629;SDS011;7914;50.842;0.166;2023-04-03T14:50:52;5.30;;;1.80;;
15629;SDS011;7914;50.842;0.166;2023-04-03T14:53:18;5.93;;;2.53;;
15629;SDS011;7914;50.842;0.166;2023-04-03T14:55:48;5.50;;;1.77;;
15629;SDS011;7914;50.842;0.166;2023-04-03T14:58:16;6.32;;;2.30;;
15629;SDS011;7914;50.842;0.166;2023-04-03T15:00:44;5.38;;;2.13;;
15629;SDS011;7914;50.842;0.166;2023-04-03T15:03:19;8.30;;;2.78;;
15629;SDS011;7914;50.842;0.166;2023-04-03T15:05:46;5.22;;;2.17;;
15629;SDS011;7914;50.842;0.166;2023-04-03T15:08:22;3.47;;;1.50;;
15629;SDS011;7914;50.842;0.166;2023-04-03T15:10:51;3.78;;;1.15;;
15629;SDS011;7914;50.842;0.166;2023-04-03T15:13:18;4.63;;;1.73;;
15629;SDS011;7914;50.842;0.166;2023-04-03T15:15:45;3.80;;;1.27;;
15629;SDS011;7914;50.842;0.166;2023-04-03T15:18:19;5.93;;;2.22;;
15629;SDS011;7914;50.842;0.166;2023-04-03T15:20:51;7.85;;;2.08;;
15629;SDS011;7914;50.842;0.166;2023-04-03T15:23:19;7.03;;;2.30;;
15629;SDS011;7914;50.842;0.166;2023-04-03T15:25:46;4.72;;;1.85;;
15629;SDS011;7914;50.842;0.166;2023-04-03T15:28:25;5.15;;;2.05;;
15629;SDS011;7914;50.842;0.166;2023-04-03T15:31:05;6.60;;;2.10;;
15629;SDS011;7914;50.842;0.166;2023-04-03T15:33:32;4.10;;;1.55;;
15629;SDS011;7914;50.842;0.166;2023-04-03T15:36:00;5.88;;;2.20;;
15629;SDS011;7914;50.842;0.166;2023-04-03T15:38:27;4.28;;;1.77;;
15629;SDS011;7914;50.842;0.166;2023-04-03T15:40:53;5.53;;;2.05;;
15629;SDS011;7914;50.842;0.166;2023-04-03T15:43:20;4.60;;;1.67;;
15629;SDS011;7914;50.842;0.166;2023-04-03T15:45:46;7.05;;;2.25;;
15629;SDS011;7914;50.842;0.166;2023-04-03T15:48:12;5.97;;;2.50;;
15629;SDS011;7914;50.842;0.166;2023-04-03T15:50:38;7.25;;;2.70;;
15629;SDS011;7914;50.842;0.166;2023-04-03T15:53:06;4.75;;;1.98;;
15629;SDS011;7914;50.842;0.166;2023-04-03T15:55:32;5.15;;;2.47;;
15629;SDS011;7914;50.842;0.166;2023-04-03T15:58:01;8.43;;;2.75;;
15629;SDS011;7914;50.842;0.166;2023-04-03T16:00:28;4.20;;;1.48;;
15629;SDS011;7914;50.842;0.166;2023-04-03T16:02:55;6.47;;;1.77;;
15629;SDS011;7914;50.842;0.166;2023-04-03T16:05:44;6.72;;;1.85;;
15629;SDS011;7914;50.842;0.166;2023-04-03T16:08:10;5.65;;;2.05;;
15629;SDS011;7914;50.842;0.166;2023-04-03T16:10:36;6.95;;;2.20;;
15629;SDS011;7914;50.842;0.166;2023-04-03T16:13:04;3.50;;;1.60;;
15629;SDS011;7914;50.842;0.166;2023-04-03T16:15:30;9.05;;;2.15;;
15629;SDS011;7914;50.842;0.166;2023-04-03T16:17:58;5.38;;;2.45;;
15629;SDS011;7914;50.842;0.166;2023-04-03T16:20:24;3.80;;;1.77;;
15629;SDS011;7914;50.842;0.166;2023-04-03T16:22:52;5.13;;;2.05;;
15629;SDS011;7914;50.842;0.166;2023-04-03T16:25:19;5.18;;;2.10;;
15629;SDS011;7914;50.842;0.166;2023-04-03T16:27:46;5.47;;;2.10;;
15629;SDS011;7914;50.842;0.166;2023-04-03T16:30:11;6.95;;;2.20;;
15629;SDS011;7914;50.842;0.166;2023-04-03T16:32:37;5.32;;;2.10;;
15629;SDS011;7914;50.842;0.166;2023-04-03T16:35:04;3.95;;;1.80;;
15629;SDS011;7914;50.842;0.166;2023-04-03T16:37:31;6.35;;;1.83;;
15629;SDS011;7914;50.842;0.166;2023-04-03T16:39:56;6.53;;;2.15;;
15629;SDS011;7914;50.842;0.166;2023-04-03T16:42:23;7.97;;;1.63;;
15629;SDS011;7914;50.842;0.166;2023-04-03T16:44:50;4.55;;;1.60;;
15629;SDS011;7914;50.842;0.166;2023-04-03T16:47:16;1.95;;;1.00;;
15629;SDS011;7914;50.842;0.166;2023-04-03T16:49:44;5.18;;;1.90;;
15629;SDS011;7914;50.842;0.166;2023-04-03T16:52:11;5.43;;;1.42;;
15629;SDS011;7914;50.842;0.166;2023-04-03T16:54:37;5.97;;;1.88;;
15629;SDS011;7914;50.842;0.166;2023-04-03T16:57:03;6.72;;;2.00;;
15629;SDS011;7914;50.842;0.166;2023-04-03T16:59:28;3.80;;;1.70;;
15629;SDS011;7914;50.842;0.166;2023-04-03T17:01:54;4.32;;;2.03;;
15629;SDS011;7914;50.842;0.166;2023-04-03T17:04:20;5.90;;;2.17;;
15629;SDS011;7914;50.842;0.166;2023-04-03T17:06:46;5.25;;;2.00;;
15629;SDS011;7914;50.842;0.166;2023-04-03T17:09:12;6.53;;;2.58;;
15629;SDS011;7914;50.842;0.166;2023-04-03T17:11:39;6.20;;;2.45;;
15629;SDS011;7914;50.842;0.166;2023-04-03T17:14:05;4.80;;;1.95;;
15629;SDS011;7914;50.842;0.166;2023-04-03T17:16:33;6.00;;;2.42;;
15629;SDS011;7914;50.842;0.166;2023-04-03T17:19:01;7.25;;;2.40;;
15629;SDS011;7914;50.842;0.166;2023-04-03T17:21:29;5.18;;;2.05;;
15629;SDS011;7914;50.842;0.166;2023-04-03T17:23:57;4.68;;;1.45;;
15629;SDS011;7914;50.842;0.166;2023-04-03T17:26:26;6.47;;;1.88;;
15629;SDS011;7914;50.842;0.166;2023-04-03T17:28:53;4.22;;;1.50;;
15629;SDS011;7914;50.842;0.166;2023-04-03T17:31:18;6.65;;;1.50;;